Time;durP1;ratioP1;P1;durP2;ratioP2;P2;SDS_P1;SDS_P2;PMS_P1;PMS_P2;Temp;Humidity;BMP_temperature;BMP_pressure;BME280_temperature;BME280_humidity;BME280_pressure;Samples;Min_cycle;Max_cycle;Signal;HPM_P1;HPM_P2
2021/11/14 00:00:26;;;;;;;8.05;3.20;;;;;;;10.75;68.33;100753.97;4966459;28;20046;-45
2021/11/14 00:02:54;;;;;;;5.78;2.50;;;;;;;10.75;68.22;100748.78;4966489;28;20070;-46
2021/11/14 00:05:33;;;;;;;10.10;3.20;;;;;;;10.75;69.04;100751.38;4969221;28;20434;-47
2021/11/14 00:08:00;;;;;;;6.70;3.22;;;;;;;10.77;68.32;100751.38;4963780;28;20522;-42
2021/11/14 00:10:27;;;;;;;7.40;2.83;;;;;;;10.77;68.69;100747.06;4979515;28;20106;-46
2021/11/14 00:12:54;;;;;;;6.63;3.20;;;;;;;10.77;68.61;100741.88;4966011;28;20055;-50
2021/11/14 00:15:21;;;;;;;7.35;3.00;;;;;;;10.77;68.21;100741.88;4968580;28;20050;-44
2021/11/14 00:17:48;;;;;;;7.60;2.95;;;;;;;10.76;68.81;100750.53;4970022;28;20050;-48
2021/11/14 00:20:15;;;;;;;8.18;2.70;;;;;;;10.79;69.05;100749.66;4969828;28;20070;-52
2021/11/14 00:22:42;;;;;;;6.88;3.13;;;;;;;10.76;69.17;100747.06;4966401;28;20043;-44
2021/11/14 00:25:13;;;;;;;7.35;2.95;;;;;;;10.74;68.91;100747.03;4971780;28;20051;-47
2021/11/14 00:27:40;;;;;;;7.10;3.22;;;;;;;10.75;68.97;100747.91;4965257;28;20050;-44
2021/11/14 00:30:07;;;;;;;6.20;3.28;;;;;;;10.75;68.51;100742.72;4968228;28;20059;-45
2021/11/14 00:32:34;;;;;;;6.15;3.50;;;;;;;10.73;68.08;100742.72;4967636;28;20050;-46
2021/11/14 00:35:03;;;;;;;5.82;2.63;;;;;;;10.72;68.49;100746.16;4965791;28;20063;-45
2021/11/14 00:37:31;;;;;;;8.13;3.00;;;;;;;10.71;68.87;100749.59;4967096;28;20064;-42
2021/11/14 00:39:58;;;;;;;5.93;2.65;;;;;;;10.70;69.04;100747.88;4961802;28;20121;-48
2021/11/14 00:42:25;;;;;;;9.93;2.75;;;;;;;10.71;68.41;100747.00;4966461;28;20055;-48
2021/11/14 00:44:51;;;;;;;9.05;3.53;;;;;;;10.71;68.23;100752.19;4965527;28;20232;-45
2021/11/14 00:47:18;;;;;;;7.47;3.85;;;;;;;10.72;68.63;100743.59;4966746;28;20109;-43
2021/11/14 00:49:46;;;;;;;9.13;3.85;;;;;;;10.70;68.33;100753.06;4967590;28;20043;-44
2021/11/14 00:52:12;;;;;;;7.78;3.45;;;;;;;10.68;69.13;100747.00;4969555;28;20046;-43
2021/11/14 00:54:39;;;;;;;7.40;2.72;;;;;;;10.66;68.76;100746.13;4967050;28;20051;-47
2021/11/14 00:57:06;;;;;;;7.78;3.10;;;;;;;10.62;69.04;100742.63;4967252;28;20475;-46
2021/11/14 00:59:33;;;;;;;6.68;2.47;;;;;;;10.59;68.41;100757.28;4964271;28;20062;-42
2021/11/14 01:01:59;;;;;;;8.18;2.90;;;;;;;10.56;68.29;100760.72;4966021;28;20443;-46
2021/11/14 01:04:26;;;;;;;8.32;3.20;;;;;;;10.57;68.63;100757.25;4967404;28;20546;-45
2021/11/14 01:06:53;;;;;;;6.72;2.50;;;;;;;10.56;68.47;100760.72;4965590;28;20055;-46
2021/11/14 01:09:19;;;;;;;5.35;1.98;;;;;;;10.53;68.76;100761.56;4961340;28;20500;-46
2021/11/14 01:11:46;;;;;;;6.30;2.55;;;;;;;10.51;68.43;100760.66;4965654;28;20055;-43
2021/11/14 01:14:14;;;;;;;7.63;3.15;;;;;;;10.53;68.05;100752.91;4963744;28;20510;-45
2021/11/14 01:16:41;;;;;;;8.52;2.80;;;;;;;10.52;68.41;100746.88;4966771;28;20051;-43
2021/11/14 01:19:09;;;;;;;8.95;2.92;;;;;;;10.47;68.28;100748.53;4970767;28;20126;-45
2021/11/14 01:21:37;;;;;;;5.82;2.92;;;;;;;10.50;68.18;100748.56;4979201;28;20110;-45
2021/11/14 01:24:05;;;;;;;8.18;3.08;;;;;;;10.48;68.90;100750.28;4994136;28;20069;-44
2021/11/14 01:26:33;;;;;;;5.30;2.42;;;;;;;10.48;68.85;100746.84;4966561;28;20166;-44
2021/11/14 01:29:00;;;;;;;5.55;2.70;;;;;;;10.47;68.29;100753.72;4963284;28;20118;-49
2021/11/14 01:31:26;;;;;;;4.53;2.17;;;;;;;10.41;68.46;100754.50;4966315;28;20046;-50
2021/11/14 01:33:53;;;;;;;9.27;3.10;;;;;;;10.47;68.78;100752.88;4966128;28;20089;-48
2021/11/14 01:36:20;;;;;;;4.78;2.17;;;;;;;10.47;68.71;100756.31;4965649;28;20050;-45
2021/11/14 01:38:47;;;;;;;7.68;2.78;;;;;;;10.45;68.92;100758.03;4965270;28;20050;-47
2021/11/14 01:41:14;;;;;;;6.93;2.45;;;;;;;10.45;68.27;100755.44;4966317;28;20105;-48
2021/11/14 01:43:46;;;;;;;8.75;2.55;;;;;;;10.44;68.55;100764.03;4965396;28;20055;-46
2021/11/14 01:46:15;;;;;;;9.13;2.85;;;;;;;10.46;68.72;100759.75;4999116;28;20046;-45
2021/11/14 01:48:42;;;;;;;6.18;3.20;;;;;;;10.46;68.17;100758.88;4966394;28;20782;-45
2021/11/14 01:51:09;;;;;;;7.40;3.08;;;;;;;10.48;68.18;100763.25;4964517;28;20059;-46
2021/11/14 01:53:38;;;;;;;5.30;2.85;;;;;;;10.45;68.47;100765.81;4967828;28;20495;-42
2021/11/14 01:56:09;;;;;;;7.07;2.15;;;;;;;10.43;68.96;100762.28;4964440;28;20101;-46
2021/11/14 01:58:37;;;;;;;6.85;2.90;;;;;;;10.44;68.39;100761.44;4966545;28;20054;-45
2021/11/14 02:01:10;;;;;;;6.70;2.60;;;;;;;10.45;68.41;100764.94;4965707;28;20097;-48
2021/11/14 02:03:40;;;;;;;4.72;2.17;;;;;;;10.43;68.40;100767.47;4993773;28;20053;-45
2021/11/14 02:06:10;;;;;;;6.07;2.20;;;;;;;10.45;68.80;100770.09;4965200;28;20058;-43
2021/11/14 02:08:39;;;;;;;5.55;2.60;;;;;;;10.39;68.30;100774.34;4965960;28;20059;-48
2021/11/14 02:11:06;;;;;;;5.38;2.05;;;;;;;10.41;68.27;100774.38;4964643;28;20539;-47
2021/11/14 02:13:33;;;;;;;5.25;2.15;;;;;;;10.44;68.17;100774.41;4964285;28;20054;-47
2021/11/14 02:16:00;;;;;;;5.50;2.65;;;;;;;10.39;69.04;100771.75;4968252;28;20058;-49
2021/11/14 02:18:27;;;;;;;8.15;2.80;;;;;;;10.39;68.38;100786.41;4966231;28;20050;-45
2021/11/14 02:20:54;;;;;;;10.55;2.97;;;;;;;10.40;68.51;100782.97;4966670;28;20059;-44
2021/11/14 02:23:23;;;;;;;7.90;3.20;;;;;;;10.41;68.53;100779.53;4981704;28;20054;-43
2021/11/14 02:25:52;;;;;;;6.50;2.25;;;;;;;10.42;68.52;100773.50;4970301;28;20047;-47
2021/11/14 02:28:20;;;;;;;6.50;2.15;;;;;;;10.39;68.79;100781.25;4970475;28;20101;-41
2021/11/14 02:30:50;;;;;;;8.25;2.38;;;;;;;10.39;68.97;100776.06;4971422;28;21611;-44
2021/11/14 02:33:17;;;;;;;6.88;2.08;;;;;;;10.36;68.85;100789.84;4997624;28;20493;-46
2021/11/14 02:35:47;;;;;;;5.05;2.78;;;;;;;10.39;67.87;100791.59;4969643;28;20094;-42
2021/11/14 02:38:15;;;;;;;12.00;2.75;;;;;;;10.38;68.30;100798.53;4971468;28;20125;-46
2021/11/14 02:40:42;;;;;;;8.45;3.28;;;;;;;10.38;68.95;100800.22;4966637;28;20053;-47
2021/11/14 02:43:10;;;;;;;7.03;2.28;;;;;;;10.36;68.82;100802.78;4970532;28;20050;-43
2021/11/14 02:45:38;;;;;;;4.60;2.40;;;;;;;10.34;69.03;100796.72;4969175;28;20438;-46
2021/11/14 02:48:06;;;;;;;5.88;2.20;;;;;;;10.34;69.01;100793.28;4969401;28;20578;-43
2021/11/14 02:50:34;;;;;;;5.68;2.47;;;;;;;10.33;68.92;100794.16;4968235;28;20194;-46
2021/11/14 02:53:01;;;;;;;8.25;2.97;;;;;;;10.35;68.51;100806.25;4969157;28;20054;-44
2021/11/14 02:55:29;;;;;;;4.35;2.25;;;;;;;10.29;69.01;100796.69;4968875;28;20047;-48
2021/11/14 02:57:55;;;;;;;9.90;2.58;;;;;;;10.34;69.23;100798.47;4971283;28;20050;-44
2021/11/14 03:00:28;;;;;;;8.55;2.80;;;;;;;10.31;69.05;100803.59;4970618;28;20077;-44
2021/11/14 03:02:55;;;;;;;5.95;2.97;;;;;;;10.33;69.61;100809.69;4971871;28;20039;-44
2021/11/14 03:05:23;;;;;;;7.13;2.97;;;;;;;10.33;68.99;100805.34;4969844;28;20058;-45
2021/11/14 03:07:50;;;;;;;5.90;2.85;;;;;;;10.34;69.52;100808.81;4971767;28;20117;-43
2021/11/14 03:10:21;;;;;;;6.90;2.83;;;;;;;10.32;69.48;100815.69;4968217;28;20101;-44
2021/11/14 03:13:08;;;;;;;10.23;2.80;;;;;;;10.28;69.88;100814.81;4968817;28;20055;-43
2021/11/14 03:15:37;;;;;;;7.63;2.78;;;;;;;10.33;69.28;100817.44;4970589;28;20098;-45
2021/11/14 03:18:05;;;;;;;7.63;3.55;;;;;;;10.32;69.77;100816.56;4997009;28;20043;-50
2021/11/14 03:20:33;;;;;;;9.40;2.83;;;;;;;10.31;69.71;100814.84;4999109;28;20723;-47
2021/11/14 03:23:00;;;;;;;6.70;2.30;;;;;;;10.28;69.79;100815.69;4999417;28;20109;-43
2021/11/14 03:25:28;;;;;;;5.07;2.22;;;;;;;10.31;70.17;100813.97;4969472;28;20047;-47
2021/11/14 03:27:56;;;;;;;7.90;2.78;;;;;;;10.30;70.13;100813.06;4986791;28;20055;-43
2021/11/14 03:30:24;;;;;;;7.07;2.65;;;;;;;10.33;69.71;100812.28;4969114;28;20105;-43
2021/11/14 03:32:52;;;;;;;10.20;2.65;;;;;;;10.32;70.20;100815.69;4981683;28;20047;-47
2021/11/14 03:35:20;;;;;;;8.88;2.78;;;;;;;10.31;70.23;100819.13;4964851;28;20050;-46
2021/11/14 03:37:47;;;;;;;10.48;3.60;;;;;;;10.33;70.06;100822.63;4968934;28;20051;-44
2021/11/14 03:40:16;;;;;;;8.45;3.60;;;;;;;10.31;70.11;100819.13;4966171;28;20109;-46
2021/11/14 03:42:44;;;;;;;8.57;2.63;;;;;;;10.28;70.63;100818.28;4970739;28;20599;-47
2021/11/14 03:45:11;;;;;;;9.98;2.80;;;;;;;10.30;71.01;100828.63;4966709;28;20121;-46
2021/11/14 03:47:38;;;;;;;8.85;2.72;;;;;;;10.32;70.67;100821.75;4970561;28;20526;-45
2021/11/14 03:50:07;;;;;;;8.70;3.22;;;;;;;10.27;70.74;100824.28;4966974;28;20058;-48
2021/11/14 03:52:34;;;;;;;7.70;2.47;;;;;;;10.24;71.35;100819.06;4968687;28;20074;-44
2021/11/14 03:55:01;;;;;;;6.78;2.47;;;;;;;10.24;71.42;100819.06;4967351;28;20055;-45
2021/11/14 03:57:28;;;;;;;13.35;3.60;;;;;;;10.25;70.82;100813.06;4968425;28;20062;-45
2021/11/14 03:59:54;;;;;;;6.93;3.17;;;;;;;10.25;71.35;100812.16;4969849;28;20059;-46
2021/11/14 04:02:21;;;;;;;6.28;3.45;;;;;;;10.22;71.29;100819.91;4972643;28;20475;-43
2021/11/14 04:04:48;;;;;;;12.95;3.90;;;;;;;10.25;71.00;100823.41;4968569;28;20074;-45
2021/11/14 04:07:15;;;;;;;11.30;3.47;;;;;;;10.26;70.79;100817.38;4967529;28;20054;-43
2021/11/14 04:09:41;;;;;;;8.30;2.58;;;;;;;10.25;71.35;100826.00;4969323;28;20462;-45
2021/11/14 04:12:08;;;;;;;9.45;3.33;;;;;;;10.27;71.30;100829.44;4968329;28;20105;-46
2021/11/14 04:14:35;;;;;;;7.93;2.20;;;;;;;10.21;71.79;100834.59;4971739;28;20101;-44
2021/11/14 04:17:02;;;;;;;8.77;3.40;;;;;;;10.24;71.13;100834.59;4969156;28;20165;-42
2021/11/14 04:19:28;;;;;;;6.15;2.88;;;;;;;10.24;70.84;100834.59;4971271;28;20054;-44
2021/11/14 04:21:55;;;;;;;10.65;3.60;;;;;;;10.23;71.51;100838.03;4967444;28;20058;-46
2021/11/14 04:24:22;;;;;;;10.38;3.10;;;;;;;10.26;71.32;100838.09;4968429;28;20534;-49
2021/11/14 04:26:48;;;;;;;10.35;3.33;;;;;;;10.23;71.09;100843.22;4996857;28;20054;-47
2021/11/14 04:29:15;;;;;;;10.70;3.17;;;;;;;10.26;71.23;100842.38;4969333;28;20451;-43
2021/11/14 04:31:42;;;;;;;9.00;2.83;;;;;;;10.26;71.01;100838.09;4968820;28;20055;-41
2021/11/14 04:34:09;;;;;;;12.77;3.25;;;;;;;10.27;71.55;100849.31;4967238;28;20062;-50
2021/11/14 04:36:35;;;;;;;8.57;2.72;;;;;;;10.27;71.14;100855.34;4965237;28;20050;-51
2021/11/14 04:39:04;;;;;;;8.73;3.40;;;;;;;10.28;70.99;100851.06;4967363;28;20105;-42
2021/11/14 04:41:31;;;;;;;8.55;3.20;;;;;;;10.27;71.13;100855.34;4997645;28;20125;-47
2021/11/14 04:43:57;;;;;;;9.43;2.78;;;;;;;10.26;71.32;100853.63;4967440;28;20114;-44
2021/11/14 04:46:24;;;;;;;9.75;3.30;;;;;;;10.28;71.12;100849.34;4967215;28;20050;-48
2021/11/14 04:48:51;;;;;;;10.20;3.35;;;;;;;10.27;71.89;100857.94;4964407;28;20062;-44
2021/11/14 04:51:18;;;;;;;7.88;2.95;;;;;;;10.28;71.59;100851.94;4964099;28;20070;-47
2021/11/14 04:53:45;;;;;;;10.25;2.60;;;;;;;10.29;71.79;100851.06;4964549;28;20463;-48
2021/11/14 04:56:11;;;;;;;6.93;3.25;;;;;;;10.28;71.74;100848.47;4948082;28;20094;-45
2021/11/14 04:58:38;;;;;;;6.68;2.65;;;;;;;10.27;71.41;100855.34;4966755;28;20141;-48
2021/11/14 05:01:05;;;;;;;8.52;3.05;;;;;;;10.25;72.23;100861.38;4965083;28;20117;-43
2021/11/14 05:03:32;;;;;;;8.85;2.70;;;;;;;10.22;72.33;100851.84;4967597;28;20061;-49
2021/11/14 05:05:59;;;;;;;9.75;2.58;;;;;;;10.20;72.12;100858.72;4966037;28;20054;-44
2021/11/14 05:08:26;;;;;;;10.85;3.15;;;;;;;10.20;72.30;100858.72;4968294;28;20109;-44
2021/11/14 05:10:53;;;;;;;8.57;2.42;;;;;;;10.18;72.92;100860.44;4996483;28;20603;-44
2021/11/14 05:13:20;;;;;;;14.80;4.05;;;;;;;10.16;72.46;100867.28;4964428;28;20506;-44
2021/11/14 05:15:47;;;;;;;9.30;2.97;;;;;;;10.13;72.50;100872.44;4966410;28;20109;-44
2021/11/14 05:18:14;;;;;;;10.85;3.22;;;;;;;10.15;72.84;100873.31;4968088;28;20051;-45
2021/11/14 05:20:41;;;;;;;10.43;3.78;;;;;;;10.12;72.91;100871.56;4966105;28;20109;-42
2021/11/14 05:23:08;;;;;;;8.40;3.13;;;;;;;10.14;73.15;100869.00;4964356;28;20442;-40
2021/11/14 05:25:35;;;;;;;10.75;2.78;;;;;;;10.09;73.33;100865.47;4964824;28;20086;-45
2021/11/14 05:28:02;;;;;;;15.95;4.05;;;;;;;10.09;72.65;100874.13;4964513;28;20058;-42
2021/11/14 05:30:29;;;;;;;14.18;4.25;;;;;;;10.06;73.78;100868.91;4965087;28;20043;-45
2021/11/14 05:32:56;;;;;;;11.43;4.80;;;;;;;10.03;74.05;100877.50;4966719;28;20051;-43
2021/11/14 05:35:23;;;;;;;15.60;3.95;;;;;;;10.03;73.50;100874.03;4967562;28;20412;-48
2021/11/14 05:37:50;;;;;;;9.07;3.45;;;;;;;10.00;73.97;100880.03;4966925;28;20058;-44
2021/11/14 05:40:16;;;;;;;12.73;3.38;;;;;;;9.94;73.86;100885.16;4967114;28;20495;-47
2021/11/14 05:42:43;;;;;;;13.98;3.78;;;;;;;9.98;74.01;100883.47;4962076;28;20054;-47
2021/11/14 05:45:10;;;;;;;18.70;5.03;;;;;;;9.96;74.27;100883.44;4966410;28;20050;-42
2021/11/14 05:47:37;;;;;;;13.60;4.43;;;;;;;9.99;73.79;100887.78;4965843;28;20105;-46
2021/11/14 05:50:06;;;;;;;11.63;3.83;;;;;;;9.97;74.00;100892.94;4964499;28;20129;-44
2021/11/14 05:52:34;;;;;;;10.98;4.45;;;;;;;9.98;73.78;100888.63;4965247;28;20082;-48
2021/11/14 05:55:00;;;;;;;12.32;3.35;;;;;;;9.98;74.09;100899.00;4963946;28;20090;-41
2021/11/14 05:57:28;;;;;;;12.50;3.78;;;;;;;9.99;73.76;100898.13;4964286;28;20110;-45
2021/11/14 06:00:03;;;;;;;9.77;3.55;;;;;;;9.98;73.98;100907.63;4966434;28;20125;-52
2021/11/14 06:02:46;;;;;;;13.13;3.58;;;;;;;9.98;74.00;100899.88;4966489;28;20530;-47
2021/11/14 06:05:15;;;;;;;13.20;3.83;;;;;;;9.99;74.20;100911.97;4967874;28;20172;-45
2021/11/14 06:07:44;;;;;;;17.15;4.45;;;;;;;9.98;73.82;100905.06;4965854;28;20059;-46
2021/11/14 06:10:11;;;;;;;10.82;3.80;;;;;;;9.98;73.92;100907.63;4965734;28;20043;-48
2021/11/14 06:12:39;;;;;;;16.33;3.92;;;;;;;9.98;73.66;100912.81;4962656;28;20054;-49
2021/11/14 06:15:09;;;;;;;10.73;3.92;;;;;;;9.99;74.19;100917.13;4996424;28;20051;-45
2021/11/14 06:17:36;;;;;;;12.88;4.28;;;;;;;10.01;73.69;100920.63;4994990;28;20195;-49
2021/11/14 06:20:04;;;;;;;13.75;3.40;;;;;;;10.02;74.12;100926.66;4966904;28;20109;-44
2021/11/14 06:22:31;;;;;;;11.13;3.30;;;;;;;10.01;73.45;100923.22;4967385;28;20495;-45
2021/11/14 06:24:58;;;;;;;9.73;3.63;;;;;;;10.02;73.28;100922.34;4963751;28;20050;-46
2021/11/14 06:27:25;;;;;;;9.65;3.38;;;;;;;10.00;73.86;100924.03;4963014;28;20050;-48
2021/11/14 06:29:52;;;;;;;8.82;2.60;;;;;;;9.96;74.29;100932.59;4966920;28;20574;-46
2021/11/14 06:32:18;;;;;;;14.05;4.28;;;;;;;9.98;73.72;100928.34;4963553;28;20085;-45
2021/11/14 06:34:45;;;;;;;11.30;3.35;;;;;;;10.00;73.94;100929.22;4964567;28;20055;-45
2021/11/14 06:37:13;;;;;;;13.13;4.05;;;;;;;10.03;74.25;100939.63;4968019;28;20384;-44
2021/11/14 06:39:40;;;;;;;12.18;3.35;;;;;;;9.98;73.99;100943.88;4994772;28;21591;-45
2021/11/14 06:42:07;;;;;;;13.95;4.25;;;;;;;9.98;74.42;100945.56;4960726;28;23071;-51
2021/11/14 06:44:34;;;;;;;10.18;3.67;;;;;;;9.96;74.17;100950.72;4961761;28;20051;-44
2021/11/14 06:47:01;;;;;;;13.38;4.38;;;;;;;9.99;73.69;100955.06;4966291;28;20047;-45
2021/11/14 06:49:28;;;;;;;14.38;4.15;;;;;;;10.01;74.32;100959.44;4965612;28;20058;-44
2021/11/14 06:51:55;;;;;;;18.38;3.97;;;;;;;10.03;73.79;100962.03;4965726;28;20055;-47
2021/11/14 06:54:21;;;;;;;15.85;3.80;;;;;;;10.02;73.80;100966.34;4964089;28;20109;-46
2021/11/14 06:56:48;;;;;;;13.23;4.13;;;;;;;10.03;74.39;100964.63;4965926;28;20832;-45
2021/11/14 06:59:15;;;;;;;18.27;5.60;;;;;;;10.03;73.78;100962.91;4964865;28;20054;-43
2021/11/14 07:01:41;;;;;;;17.05;4.68;;;;;;;10.06;74.12;100964.66;4965550;28;20046;-46
2021/11/14 07:04:08;;;;;;;13.38;4.82;;;;;;;10.08;73.68;100967.28;4966933;28;20059;-42
2021/11/14 07:06:36;;;;;;;13.82;4.50;;;;;;;10.09;74.49;100971.59;4966290;28;20051;-46
2021/11/14 07:09:03;;;;;;;14.05;3.80;;;;;;;10.10;74.23;100975.94;4966928;28;20105;-41
2021/11/14 07:11:29;;;;;;;16.23;5.22;;;;;;;10.10;74.47;100981.13;4970855;28;20059;-43
2021/11/14 07:13:56;;;;;;;20.33;4.05;;;;;;;10.12;74.49;100982.00;4967990;28;20051;-47
2021/11/14 07:16:23;;;;;;;23.73;5.60;;;;;;;10.11;74.48;100977.69;4969966;28;20676;-49
2021/11/14 07:18:49;;;;;;;23.08;4.93;;;;;;;10.12;74.42;100984.59;4971608;28;20054;-53
2021/11/14 07:21:16;;;;;;;20.02;5.22;;;;;;;10.11;74.22;100985.44;4970478;28;20652;-45
2021/11/14 07:23:43;;;;;;;19.77;6.20;;;;;;;10.10;74.05;100991.50;4969968;28;20094;-45
2021/11/14 07:26:10;;;;;;;18.58;5.18;;;;;;;10.07;74.87;100986.25;4971333;28;20451;-47
2021/11/14 07:28:37;;;;;;;17.15;4.43;;;;;;;10.07;74.70;100991.44;4967828;28;20047;-43
2021/11/14 07:31:03;;;;;;;25.08;6.13;;;;;;;10.09;74.97;100989.72;4970935;28;20063;-43
2021/11/14 07:33:30;;;;;;;12.98;4.68;;;;;;;10.07;74.71;100991.44;4968943;28;20051;-44
2021/11/14 07:35:57;;;;;;;20.85;5.20;;;;;;;10.08;74.95;100993.16;4969514;28;20050;-43
2021/11/14 07:38:24;;;;;;;16.58;5.05;;;;;;;10.06;74.67;101000.06;4971978;28;20055;-42
2021/11/14 07:40:50;;;;;;;20.25;4.50;;;;;;;10.06;74.87;101000.91;4969386;28;20054;-48
2021/11/14 07:43:17;;;;;;;25.83;6.20;;;;;;;10.03;75.19;101003.44;4969159;28;20137;-43
2021/11/14 07:45:44;;;;;;;18.38;4.68;;;;;;;10.01;74.85;101008.63;4969138;28;20081;-42
2021/11/14 07:48:11;;;;;;;18.42;4.85;;;;;;;9.98;75.29;101011.16;4968756;28;20074;-50
2021/11/14 07:50:39;;;;;;;16.85;5.05;;;;;;;9.98;75.36;101003.41;4966553;28;20058;-43
2021/11/14 07:53:06;;;;;;;23.35;5.57;;;;;;;9.97;75.88;101013.72;4966955;28;20050;-49
2021/11/14 07:55:33;;;;;;;17.20;4.40;;;;;;;9.97;75.61;101017.16;4969694;28;20051;-44
2021/11/14 07:58:05;;;;;;;19.98;4.75;;;;;;;9.95;76.06;101021.47;4968267;28;20517;-47
2021/11/14 08:00:35;;;;;;;22.73;5.63;;;;;;;9.95;76.20;101016.28;4968496;28;20090;-43
2021/11/14 08:03:01;;;;;;;23.70;5.13;;;;;;;9.96;75.85;101020.59;4966688;28;20133;-46
2021/11/14 08:05:28;;;;;;;24.90;6.15;;;;;;;9.98;76.16;101018.94;4968632;28;20121;-48
2021/11/14 08:07:55;;;;;;;17.13;4.32;;;;;;;9.94;76.56;101024.91;4968045;28;20047;-45
2021/11/14 08:10:23;;;;;;;20.88;5.22;;;;;;;9.95;75.84;101021.47;4967978;28;20106;-45
2021/11/14 08:12:51;;;;;;;23.45;5.88;;;;;;;9.95;75.90;101028.34;4964535;28;20054;-43
2021/11/14 08:15:18;;;;;;;23.40;5.43;;;;;;;9.97;76.23;101030.09;4965834;28;20102;-45
2021/11/14 08:17:45;;;;;;;20.55;5.22;;;;;;;9.96;76.41;101020.59;4967689;28;20059;-46
2021/11/14 08:20:12;;;;;;;19.10;5.05;;;;;;;9.99;76.18;101031.00;4964757;28;20054;-45
2021/11/14 08:22:39;;;;;;;21.73;5.75;;;;;;;9.97;76.69;101027.50;4966453;28;20513;-50
2021/11/14 08:25:06;;;;;;;22.45;5.95;;;;;;;9.98;76.17;101034.47;4967332;28;20066;-43
2021/11/14 08:27:34;;;;;;;22.85;6.35;;;;;;;10.00;76.26;101032.75;4965991;28;20719;-46
2021/11/14 08:30:03;;;;;;;17.65;5.45;;;;;;;10.03;76.21;101032.78;4970620;28;20443;-49
2021/11/14 08:32:30;;;;;;;22.48;5.50;;;;;;;10.04;76.17;101033.69;4967319;28;20047;-45
2021/11/14 08:34:57;;;;;;;23.23;5.50;;;;;;;10.05;76.52;101044.88;4965608;28;20051;-41
2021/11/14 08:37:23;;;;;;;23.70;5.88;;;;;;;10.05;76.35;101039.69;4997550;28;20050;-47
2021/11/14 08:39:50;;;;;;;16.92;5.47;;;;;;;10.04;76.24;101038.84;4966495;28;20055;-44
2021/11/14 08:42:17;;;;;;;21.33;5.65;;;;;;;10.07;76.22;101043.19;4966149;28;20090;-44
2021/11/14 08:44:44;;;;;;;20.90;6.00;;;;;;;10.07;76.60;101040.63;4967874;28;20109;-47
2021/11/14 08:47:12;;;;;;;26.05;5.57;;;;;;;10.09;76.26;101041.50;4964218;28;20059;-42
2021/11/14 08:49:39;;;;;;;24.35;6.18;;;;;;;10.11;76.47;101045.00;4965148;28;20051;-47
2021/11/14 08:52:07;;;;;;;27.35;5.75;;;;;;;10.10;76.96;101051.88;4983545;28;20073;-43
2021/11/14 08:54:34;;;;;;;17.10;3.60;;;;;;;10.09;76.66;101042.38;4964160;28;20069;-47
2021/11/14 08:57:01;;;;;;;21.73;7.32;;;;;;;10.11;76.85;101050.16;4967479;28;20113;-45
2021/11/14 08:59:28;;;;;;;28.33;7.10;;;;;;;10.12;76.66;101049.31;4965607;28;20050;-43
2021/11/14 09:01:55;;;;;;;25.75;6.32;;;;;;;10.12;76.68;101054.50;4964628;28;20117;-47
2021/11/14 09:04:21;;;;;;;23.05;5.55;;;;;;;10.14;76.69;101050.22;4966180;28;20054;-46
2021/11/14 09:06:48;;;;;;;24.10;5.60;;;;;;;10.14;76.67;101055.41;4967589;28;20054;-49
2021/11/14 09:09:14;;;;;;;23.63;6.20;;;;;;;10.14;77.06;101055.41;4966848;28;20054;-43
2021/11/14 09:11:43;;;;;;;22.88;5.78;;;;;;;10.17;76.92;101052.88;4966690;28;20051;-45
2021/11/14 09:14:11;;;;;;;26.45;4.97;;;;;;;10.20;76.87;101063.25;4966188;28;20047;-44
2021/11/14 09:16:38;;;;;;;20.90;6.15;;;;;;;10.20;76.39;101060.66;4961960;28;20101;-43
2021/11/14 09:19:07;;;;;;;20.30;6.78;;;;;;;10.26;76.74;101063.34;4967707;28;20059;-45
2021/11/14 09:21:36;;;;;;;22.33;6.78;;;;;;;10.28;76.92;101064.25;4964896;28;20491;-44
2021/11/14 09:24:03;;;;;;;23.10;5.53;;;;;;;10.27;76.79;101057.31;4968907;28;20105;-43
2021/11/14 09:26:30;;;;;;;23.40;5.63;;;;;;;10.31;76.67;101068.59;4966079;28;20067;-47
2021/11/14 09:28:57;;;;;;;21.05;5.75;;;;;;;10.34;76.91;101067.78;4968511;28;20117;-45
2021/11/14 09:31:24;;;;;;;22.58;6.40;;;;;;;10.36;76.55;101076.41;4965199;28;20109;-43
2021/11/14 09:33:54;;;;;;;26.92;6.68;;;;;;;10.36;76.20;101076.41;4966945;28;20135;-43
2021/11/14 09:36:21;;;;;;;29.95;6.90;;;;;;;10.39;76.57;101073.88;4965934;28;20059;-48
2021/11/14 09:38:48;;;;;;;31.38;6.05;;;;;;;10.43;76.16;101075.66;4964341;28;20058;-44
2021/11/14 09:41:16;;;;;;;22.88;6.68;;;;;;;10.47;76.98;101085.25;4964858;28;20051;-42
2021/11/14 09:43:43;;;;;;;19.30;6.32;;;;;;;10.52;76.21;101073.25;4966395;28;20042;-45
2021/11/14 09:46:30;;;;;;;23.27;6.45;;;;;;;10.57;76.26;101080.22;4965906;28;20152;-48
2021/11/14 09:48:57;;;;;;;30.50;6.72;;;;;;;10.56;76.36;101083.63;4964197;28;21600;-47
2021/11/14 09:51:24;;;;;;;31.25;7.65;;;;;;;10.58;76.08;101084.53;4969893;28;20061;-48
2021/11/14 09:53:53;;;;;;;26.77;6.55;;;;;;;10.58;76.35;101087.13;4963829;28;20055;-45
2021/11/14 09:56:19;;;;;;;27.02;7.03;;;;;;;10.58;76.79;101093.19;4970058;28;20047;-45
2021/11/14 09:58:46;;;;;;;24.23;7.43;;;;;;;10.57;76.79;101090.56;4965867;28;20110;-43
2021/11/14 10:01:13;;;;;;;29.75;6.95;;;;;;;10.58;76.95;101097.50;4966489;28;20051;-43
2021/11/14 10:03:40;;;;;;;26.65;6.72;;;;;;;10.62;76.53;101104.44;4964173;28;20051;-45
2021/11/14 10:06:06;;;;;;;22.20;5.65;;;;;;;10.62;76.30;101099.28;4967280;28;20050;-47
2021/11/14 10:08:37;;;;;;;21.23;6.60;;;;;;;10.63;76.80;101101.00;4993310;28;20055;-43
2021/11/14 10:11:04;;;;;;;24.38;7.20;;;;;;;10.61;77.20;101095.81;4966078;28;20463;-46
2021/11/14 10:13:34;;;;;;;22.73;6.68;;;;;;;10.63;76.40;101101.00;4964215;28;20055;-46
2021/11/14 10:16:13;;;;;;;21.08;6.20;;;;;;;10.59;76.73;101107.88;4961302;28;20090;-43
2021/11/14 10:18:49;;;;;;;19.98;6.78;;;;;;;10.62;76.37;101117.41;4964245;28;20054;-45
2021/11/14 10:21:16;;;;;;;;;;;;;;;10.50;77.42;101111.19;4962904;28;20047;-49
2021/11/14 10:23:43;;;;;;;22.80;5.97;;;;;;;10.58;76.74;101108.72;4965841;28;20386;-45
2021/11/14 10:26:11;;;;;;;26.20;6.93;;;;;;;10.60;77.08;101112.19;4962625;28;20102;-48
2021/11/14 10:28:41;;;;;;;28.55;6.72;;;;;;;10.60;76.39;101112.19;4993725;28;20062;-43
2021/11/14 10:31:09;;;;;;;25.75;5.72;;;;;;;10.62;76.62;101120.88;4965052;28;20496;-47
2021/11/14 10:33:36;;;;;;;23.17;5.82;;;;;;;10.63;76.41;101121.72;4969518;28;20138;-44
2021/11/14 10:36:04;;;;;;;27.48;6.25;;;;;;;10.65;77.12;101120.03;4967640;28;20050;-44
2021/11/14 10:38:38;;;;;;;28.13;7.18;;;;;;;10.65;77.01;101120.03;4969080;28;20086;-44
2021/11/14 10:41:10;;;;;;;23.63;4.65;;;;;;;10.64;76.77;101123.50;4965366;28;20061;-44
2021/11/14 10:43:39;;;;;;;27.90;5.93;;;;;;;10.64;76.60;101115.72;4962413;28;21118;-45
2021/11/14 10:46:17;;;;;;;26.35;6.85;;;;;;;10.66;77.19;101116.59;4969260;28;20058;-45
2021/11/14 10:48:44;;;;;;;27.30;6.90;;;;;;;10.68;76.52;101127.88;4967231;28;20051;-45
2021/11/14 10:51:12;;;;;;;22.50;5.47;;;;;;;10.68;77.52;101125.28;4971223;28;20051;-48
2021/11/14 10:53:40;;;;;;;24.25;6.00;;;;;;;10.73;76.35;101127.91;4973473;28;20605;-45
2021/11/14 10:56:11;;;;;;;27.67;6.53;;;;;;;10.75;76.45;101126.22;4999522;28;20055;-51
2021/11/14 10:58:41;;;;;;;22.92;5.70;;;;;;;10.78;76.55;101132.31;4995085;28;20069;-47
2021/11/14 11:01:13;;;;;;;22.60;6.97;;;;;;;10.80;77.00;101124.56;4973393;28;20054;-43
2021/11/14 11:03:45;;;;;;;23.58;6.90;;;;;;;10.84;77.30;101130.69;4969754;28;20146;-44
2021/11/14 11:06:24;;;;;;;24.85;6.70;;;;;;;10.82;76.58;101138.44;4970017;28;20126;-42
2021/11/14 11:08:57;;;;;;;23.23;6.70;;;;;;;10.88;77.47;101141.09;4969178;28;20055;-44
2021/11/14 11:11:35;;;;;;;24.08;6.85;;;;;;;10.92;76.28;101131.66;4969536;28;20559;-44
2021/11/14 11:14:01;;;;;;;29.90;7.63;;;;;;;10.97;77.41;101135.16;4969414;28;20202;-41
2021/11/14 11:16:30;;;;;;;27.30;7.85;;;;;;;11.01;77.13;101136.94;4971106;28;20718;-49
2021/11/14 11:19:01;;;;;;;23.50;7.00;;;;;;;11.08;77.00;101139.63;4967692;28;20470;-44
2021/11/14 11:21:31;;;;;;;26.00;7.05;;;;;;;11.16;76.40;101130.22;4996260;28;20443;-48
2021/11/14 11:24:10;;;;;;;24.13;6.32;;;;;;;11.28;76.45;101138.13;4967570;28;20578;-49